sensor_id;sensor_type;location;lat;lon;timestamp;P1;durP1;ratioP1;P2;durP2;ratioP2
66143;SDS011;52947;50.842;6.084;2023-08-06T00:02:06;3.17;;;1.25;;
66143;SDS011;52947;50.842;6.084;2023-08-06T00:04:34;2.33;;;1.15;;
66143;SDS011;52947;50.842;6.084;2023-08-06T00:07:02;6.07;;;1.75;;
66143;SDS011;52947;50.842;6.084;2023-08-06T00:09:31;2.83;;;1.38;;
66143;SDS011;52947;50.842;6.084;2023-08-06T00:12:00;2.65;;;1.50;;
66143;SDS011;52947;50.842;6.084;2023-08-06T00:16:56;2.35;;;1.27;;
66143;SDS011;52947;50.842;6.084;2023-08-06T00:19:24;1.75;;;1.27;;
66143;SDS011;52947;50.842;6.084;2023-08-06T00:21:52;2.00;;;1.40;;
66143;SDS011;52947;50.842;6.084;2023-08-06T00:24:20;1.63;;;1.10;;
66143;SDS011;52947;50.842;6.084;2023-08-06T00:26:48;2.67;;;1.27;;
66143;SDS011;52947;50.842;6.084;2023-08-06T00:29:19;1.20;;;1.10;;
66143;SDS011;52947;50.842;6.084;2023-08-06T00:34:15;4.57;;;1.25;;
66143;SDS011;52947;50.842;6.084;2023-08-06T00:36:43;4.15;;;1.40;;
66143;SDS011;52947;50.842;6.084;2023-08-06T00:39:11;1.17;;;1.02;;
66143;SDS011;52947;50.842;6.084;2023-08-06T00:41:39;5.15;;;1.20;;
66143;SDS011;52947;50.842;6.084;2023-08-06T00:44:07;2.35;;;1.30;;
66143;SDS011;52947;50.842;6.084;2023-08-06T00:46:36;3.90;;;1.25;;
66143;SDS011;52947;50.842;6.084;2023-08-06T00:49:04;2.15;;;1.10;;
66143;SDS011;52947;50.842;6.084;2023-08-06T00:51:33;1.47;;;1.37;;
66143;SDS011;52947;50.842;6.084;2023-08-06T00:54:03;2.83;;;1.48;;
66143;SDS011;52947;50.842;6.084;2023-08-06T00:56:31;5.50;;;1.20;;
66143;SDS011;52947;50.842;6.084;2023-08-06T00:59:02;2.35;;;1.23;;
66143;SDS011;52947;50.842;6.084;2023-08-06T01:01:31;2.33;;;1.40;;
66143;SDS011;52947;50.842;6.084;2023-08-06T01:04:00;3.00;;;1.20;;
66143;SDS011;52947;50.842;6.084;2023-08-06T01:06:31;3.13;;;0.88;;
66143;SDS011;52947;50.842;6.084;2023-08-06T01:09:08;3.75;;;1.10;;
66143;SDS011;52947;50.842;6.084;2023-08-06T01:11:48;2.53;;;1.20;;
66143;SDS011;52947;50.842;6.084;2023-08-06T01:14:28;1.88;;;1.13;;
66143;SDS011;52947;50.842;6.084;2023-08-06T01:16:59;6.45;;;0.90;;
66143;SDS011;52947;50.842;6.084;2023-08-06T01:19:29;2.47;;;1.00;;
66143;SDS011;52947;50.842;6.084;2023-08-06T01:21:58;3.10;;;1.00;;
66143;SDS011;52947;50.842;6.084;2023-08-06T01:26:55;1.73;;;0.90;;
66143;SDS011;52947;50.842;6.084;2023-08-06T01:29:32;1.13;;;0.90;;
66143;SDS011;52947;50.842;6.084;2023-08-06T01:32:03;1.88;;;1.00;;
66143;SDS011;52947;50.842;6.084;2023-08-06T01:34:32;6.38;;;1.10;;
66143;SDS011;52947;50.842;6.084;2023-08-06T01:39:33;4.10;;;1.10;;
66143;SDS011;52947;50.842;6.084;2023-08-06T01:42:03;3.15;;;1.10;;
66143;SDS011;52947;50.842;6.084;2023-08-06T01:44:31;1.25;;;0.98;;
66143;SDS011;52947;50.842;6.084;2023-08-06T01:46:59;2.13;;;0.93;;
66143;SDS011;52947;50.842;6.084;2023-08-06T01:49:27;3.50;;;1.27;;
66143;SDS011;52947;50.842;6.084;2023-08-06T01:51:55;6.00;;;1.20;;
66143;SDS011;52947;50.842;6.084;2023-08-06T01:54:24;2.92;;;1.00;;
66143;SDS011;52947;50.842;6.084;2023-08-06T01:59:20;1.45;;;0.93;;
66143;SDS011;52947;50.842;6.084;2023-08-06T02:01:48;1.38;;;0.95;;
66143;SDS011;52947;50.842;6.084;2023-08-06T02:04:17;3.17;;;1.00;;
66143;SDS011;52947;50.842;6.084;2023-08-06T02:06:45;4.95;;;1.00;;
66143;SDS011;52947;50.842;6.084;2023-08-06T02:09:13;2.10;;;0.90;;
66143;SDS011;52947;50.842;6.084;2023-08-06T02:11:42;2.67;;;0.98;;
66143;SDS011;52947;50.842;6.084;2023-08-06T02:16:38;5.43;;;0.82;;
66143;SDS011;52947;50.842;6.084;2023-08-06T02:19:06;2.85;;;0.98;;
66143;SDS011;52947;50.842;6.084;2023-08-06T02:21:34;2.40;;;1.08;;
66143;SDS011;52947;50.842;6.084;2023-08-06T02:24:02;1.23;;;1.00;;
66143;SDS011;52947;50.842;6.084;2023-08-06T02:26:31;2.15;;;0.90;;
66143;SDS011;52947;50.842;6.084;2023-08-06T02:29:00;4.82;;;1.02;;
66143;SDS011;52947;50.842;6.084;2023-08-06T02:33:57;2.15;;;0.85;;
66143;SDS011;52947;50.842;6.084;2023-08-06T02:36:25;3.80;;;1.10;;
66143;SDS011;52947;50.842;6.084;2023-08-06T02:38:58;2.08;;;0.90;;
66143;SDS011;52947;50.842;6.084;2023-08-06T02:41:26;2.75;;;0.93;;
66143;SDS011;52947;50.842;6.084;2023-08-06T02:43:56;2.13;;;0.90;;
66143;SDS011;52947;50.842;6.084;2023-08-06T02:46:25;2.42;;;0.88;;
66143;SDS011;52947;50.842;6.084;2023-08-06T02:51:21;8.55;;;1.10;;
66143;SDS011;52947;50.842;6.084;2023-08-06T02:53:49;6.13;;;1.20;;
66143;SDS011;52947;50.842;6.084;2023-08-06T02:56:19;2.10;;;1.00;;
66143;SDS011;52947;50.842;6.084;2023-08-06T02:59:13;1.98;;;1.00;;
66143;SDS011;52947;50.842;6.084;2023-08-06T03:01:53;3.28;;;0.90;;
66143;SDS011;52947;50.842;6.084;2023-08-06T03:04:28;3.65;;;1.00;;
66143;SDS011;52947;50.842;6.084;2023-08-06T03:06:56;1.50;;;0.98;;
66143;SDS011;52947;50.842;6.084;2023-08-06T03:09:32;2.53;;;1.13;;
66143;SDS011;52947;50.842;6.084;2023-08-06T03:12:01;3.78;;;1.00;;
66143;SDS011;52947;50.842;6.084;2023-08-06T03:14:29;2.60;;;1.20;;
66143;SDS011;52947;50.842;6.084;2023-08-06T03:16:58;5.25;;;1.10;;
66143;SDS011;52947;50.842;6.084;2023-08-06T03:19:27;1.58;;;0.93;;
66143;SDS011;52947;50.842;6.084;2023-08-06T03:21:55;1.90;;;0.93;;
66143;SDS011;52947;50.842;6.084;2023-08-06T03:24:24;6.70;;;2.10;;
66143;SDS011;52947;50.842;6.084;2023-08-06T03:26:52;1.00;;;0.77;;
66143;SDS011;52947;50.842;6.084;2023-08-06T03:29:20;1.20;;;1.10;;
66143;SDS011;52947;50.842;6.084;2023-08-06T03:31:49;2.45;;;0.88;;
66143;SDS011;52947;50.842;6.084;2023-08-06T03:34:20;6.32;;;1.00;;
66143;SDS011;52947;50.842;6.084;2023-08-06T03:36:50;1.00;;;0.90;;
66143;SDS011;52947;50.842;6.084;2023-08-06T03:39:18;2.97;;;0.80;;
66143;SDS011;52947;50.842;6.084;2023-08-06T03:41:46;0.95;;;0.80;;
66143;SDS011;52947;50.842;6.084;2023-08-06T03:44:14;2.40;;;0.82;;
66143;SDS011;52947;50.842;6.084;2023-08-06T03:46:43;1.73;;;0.88;;
66143;SDS011;52947;50.842;6.084;2023-08-06T03:49:10;1.95;;;0.77;;
66143;SDS011;52947;50.842;6.084;2023-08-06T03:54:09;3.85;;;1.05;;
66143;SDS011;52947;50.842;6.084;2023-08-06T03:56:37;2.30;;;0.60;;
66143;SDS011;52947;50.842;6.084;2023-08-06T03:59:05;0.70;;;0.70;;
66143;SDS011;52947;50.842;6.084;2023-08-06T04:01:33;1.27;;;0.80;;
66143;SDS011;52947;50.842;6.084;2023-08-06T04:04:01;0.80;;;0.80;;
66143;SDS011;52947;50.842;6.084;2023-08-06T04:06:29;1.02;;;0.70;;
66143;SDS011;52947;50.842;6.084;2023-08-06T04:08:59;2.20;;;0.60;;
66143;SDS011;52947;50.842;6.084;2023-08-06T04:13:54;1.75;;;0.80;;
66143;SDS011;52947;50.842;6.084;2023-08-06T04:16:23;1.38;;;0.90;;
66143;SDS011;52947;50.842;6.084;2023-08-06T04:18:52;1.75;;;1.02;;
66143;SDS011;52947;50.842;6.084;2023-08-06T04:21:22;1.17;;;0.82;;
66143;SDS011;52947;50.842;6.084;2023-08-06T04:23:50;1.67;;;1.00;;
66143;SDS011;52947;50.842;6.084;2023-08-06T04:26:20;1.23;;;1.13;;
66143;SDS011;52947;50.842;6.084;2023-08-06T04:31:16;1.93;;;0.97;;
66143;SDS011;52947;50.842;6.084;2023-08-06T04:33:44;1.23;;;1.10;;
66143;SDS011;52947;50.842;6.084;2023-08-06T04:36:14;1.30;;;0.90;;
66143;SDS011;52947;50.842;6.084;2023-08-06T04:38:42;1.52;;;1.15;;
66143;SDS011;52947;50.842;6.084;2023-08-06T04:41:13;3.47;;;1.20;;
66143;SDS011;52947;50.842;6.084;2023-08-06T04:43:43;1.02;;;0.93;;
66143;SDS011;52947;50.842;6.084;2023-08-06T04:46:11;1.77;;;1.15;;
66143;SDS011;52947;50.842;6.084;2023-08-06T04:48:39;2.70;;;1.77;;
66143;SDS011;52947;50.842;6.084;2023-08-06T04:51:07;2.13;;;1.40;;
66143;SDS011;52947;50.842;6.084;2023-08-06T04:53:35;2.78;;;1.55;;
66143;SDS011;52947;50.842;6.084;2023-08-06T04:56:04;2.85;;;1.55;;
66143;SDS011;52947;50.842;6.084;2023-08-06T04:58:31;2.00;;;1.45;;
66143;SDS011;52947;50.842;6.084;2023-08-06T05:01:01;2.67;;;1.40;;
66143;SDS011;52947;50.842;6.084;2023-08-06T05:03:29;3.72;;;1.85;;
66143;SDS011;52947;50.842;6.084;2023-08-06T05:05:57;2.50;;;1.67;;
66143;SDS011;52947;50.842;6.084;2023-08-06T05:08:25;2.78;;;1.60;;
66143;SDS011;52947;50.842;6.084;2023-08-06T05:10:52;2.75;;;1.48;;
66143;SDS011;52947;50.842;6.084;2023-08-06T05:13:20;3.20;;;1.80;;
66143;SDS011;52947;50.842;6.084;2023-08-06T05:15:48;3.28;;;1.85;;
66143;SDS011;52947;50.842;6.084;2023-08-06T05:18:18;2.28;;;1.80;;
66143;SDS011;52947;50.842;6.084;2023-08-06T05:20:46;6.00;;;2.10;;
66143;SDS011;52947;50.842;6.084;2023-08-06T05:23:14;3.15;;;1.98;;
66143;SDS011;52947;50.842;6.084;2023-08-06T05:25:41;2.80;;;1.70;;
66143;SDS011;52947;50.842;6.084;2023-08-06T05:28:09;3.70;;;2.45;;
66143;SDS011;52947;50.842;6.084;2023-08-06T05:30:39;4.65;;;2.03;;
66143;SDS011;52947;50.842;6.084;2023-08-06T05:33:07;5.22;;;2.72;;
66143;SDS011;52947;50.842;6.084;2023-08-06T05:35:36;4.10;;;2.35;;
66143;SDS011;52947;50.842;6.084;2023-08-06T05:40:32;2.85;;;2.50;;
66143;SDS011;52947;50.842;6.084;2023-08-06T05:45:28;3.58;;;2.17;;
66143;SDS011;52947;50.842;6.084;2023-08-06T05:47:56;4.05;;;2.60;;
66143;SDS011;52947;50.842;6.084;2023-08-06T05:50:25;7.78;;;2.97;;
66143;SDS011;52947;50.842;6.084;2023-08-06T05:52:54;6.93;;;3.28;;
66143;SDS011;52947;50.842;6.084;2023-08-06T05:55:26;7.18;;;3.03;;
66143;SDS011;52947;50.842;6.084;2023-08-06T05:57:54;4.72;;;3.13;;
66143;SDS011;52947;50.842;6.084;2023-08-06T06:00:22;5.00;;;3.00;;
66143;SDS011;52947;50.842;6.084;2023-08-06T06:02:50;6.60;;;3.20;;
66143;SDS011;52947;50.842;6.084;2023-08-06T06:05:18;8.90;;;3.28;;
66143;SDS011;52947;50.842;6.084;2023-08-06T06:07:46;4.85;;;2.90;;
66143;SDS011;52947;50.842;6.084;2023-08-06T06:10:15;5.03;;;3.47;;
66143;SDS011;52947;50.842;6.084;2023-08-06T06:12:43;7.63;;;3.35;;
66143;SDS011;52947;50.842;6.084;2023-08-06T06:15:11;9.32;;;3.63;;
66143;SDS011;52947;50.842;6.084;2023-08-06T06:17:39;6.93;;;3.60;;
66143;SDS011;52947;50.842;6.084;2023-08-06T06:20:07;7.60;;;3.53;;
66143;SDS011;52947;50.842;6.084;2023-08-06T06:22:36;5.70;;;3.50;;
66143;SDS011;52947;50.842;6.084;2023-08-06T06:25:04;5.32;;;3.00;;
66143;SDS011;52947;50.842;6.084;2023-08-06T06:27:34;9.02;;;3.35;;
66143;SDS011;52947;50.842;6.084;2023-08-06T06:30:02;5.15;;;3.33;;
66143;SDS011;52947;50.842;6.084;2023-08-06T06:32:30;7.82;;;3.58;;
66143;SDS011;52947;50.842;6.084;2023-08-06T06:34:58;7.28;;;3.50;;
66143;SDS011;52947;50.842;6.084;2023-08-06T06:37:26;4.10;;;3.28;;
66143;SDS011;52947;50.842;6.084;2023-08-06T06:39:54;7.72;;;3.70;;
66143;SDS011;52947;50.842;6.084;2023-08-06T06:42:22;6.68;;;3.72;;
66143;SDS011;52947;50.842;6.084;2023-08-06T06:44:58;6.65;;;3.03;;
66143;SDS011;52947;50.842;6.084;2023-08-06T06:49:54;5.85;;;3.40;;
66143;SDS011;52947;50.842;6.084;2023-08-06T06:52:22;4.18;;;2.97;;
66143;SDS011;52947;50.842;6.084;2023-08-06T06:54:49;4.85;;;2.50;;
66143;SDS011;52947;50.842;6.084;2023-08-06T06:57:17;3.35;;;2.30;;
66143;SDS011;52947;50.842;6.084;2023-08-06T06:59:45;4.85;;;2.28;;
66143;SDS011;52947;50.842;6.084;2023-08-06T07:02:15;3.30;;;1.92;;
66143;SDS011;52947;50.842;6.084;2023-08-06T07:04:43;2.58;;;1.88;;
66143;SDS011;52947;50.842;6.084;2023-08-06T07:07:11;4.90;;;2.00;;
66143;SDS011;52947;50.842;6.084;2023-08-06T07:09:38;2.08;;;1.63;;
66143;SDS011;52947;50.842;6.084;2023-08-06T07:12:07;3.58;;;1.90;;
66143;SDS011;52947;50.842;6.084;2023-08-06T07:14:35;2.10;;;1.33;;
66143;SDS011;52947;50.842;6.084;2023-08-06T07:17:03;0.80;;;0.80;;
66143;SDS011;52947;50.842;6.084;2023-08-06T07:19:33;1.77;;;0.98;;
66143;SDS011;52947;50.842;6.084;2023-08-06T07:22:01;1.30;;;0.80;;
66143;SDS011;52947;50.842;6.084;2023-08-06T07:24:28;2.33;;;1.08;;
66143;SDS011;52947;50.842;6.084;2023-08-06T07:26:56;1.23;;;0.80;;
66143;SDS011;52947;50.842;6.084;2023-08-06T07:29:24;2.55;;;0.90;;
66143;SDS011;52947;50.842;6.084;2023-08-06T07:31:52;2.80;;;0.98;;
66143;SDS011;52947;50.842;6.084;2023-08-06T07:34:22;1.23;;;0.80;;
66143;SDS011;52947;50.842;6.084;2023-08-06T07:36:51;2.38;;;0.73;;
66143;SDS011;52947;50.842;6.084;2023-08-06T07:41:46;0.93;;;0.93;;
66143;SDS011;52947;50.842;6.084;2023-08-06T07:44:14;2.05;;;1.30;;
66143;SDS011;52947;50.842;6.084;2023-08-06T07:46:42;3.35;;;1.20;;
66143;SDS011;52947;50.842;6.084;2023-08-06T07:49:10;2.83;;;1.00;;
66143;SDS011;52947;50.842;6.084;2023-08-06T07:51:38;1.77;;;0.93;;
66143;SDS011;52947;50.842;6.084;2023-08-06T07:54:08;0.75;;;0.75;;
66143;SDS011;52947;50.842;6.084;2023-08-06T07:56:36;0.95;;;0.93;;
66143;SDS011;52947;50.842;6.084;2023-08-06T07:59:04;1.60;;;1.00;;
66143;SDS011;52947;50.842;6.084;2023-08-06T08:01:32;3.15;;;0.85;;
66143;SDS011;52947;50.842;6.084;2023-08-06T08:03:59;2.15;;;0.60;;
66143;SDS011;52947;50.842;6.084;2023-08-06T08:06:27;1.85;;;0.88;;
66143;SDS011;52947;50.842;6.084;2023-08-06T08:08:55;0.95;;;0.60;;
66143;SDS011;52947;50.842;6.084;2023-08-06T08:11:25;0.98;;;0.70;;
66143;SDS011;52947;50.842;6.084;2023-08-06T08:13:53;0.73;;;0.73;;
66143;SDS011;52947;50.842;6.084;2023-08-06T08:16:21;3.13;;;0.82;;
66143;SDS011;52947;50.842;6.084;2023-08-06T08:18:49;0.80;;;0.80;;
66143;SDS011;52947;50.842;6.084;2023-08-06T08:21:17;1.10;;;0.70;;
66143;SDS011;52947;50.842;6.084;2023-08-06T08:23:45;0.90;;;0.90;;
66143;SDS011;52947;50.842;6.084;2023-08-06T08:26:13;1.05;;;0.95;;
66143;SDS011;52947;50.842;6.084;2023-08-06T08:28:42;2.00;;;1.50;;
66143;SDS011;52947;50.842;6.084;2023-08-06T08:33:38;1.80;;;1.60;;
66143;SDS011;52947;50.842;6.084;2023-08-06T08:36:06;2.50;;;1.80;;
66143;SDS011;52947;50.842;6.084;2023-08-06T08:38:36;2.15;;;1.95;;
66143;SDS011;52947;50.842;6.084;2023-08-06T08:41:04;3.25;;;2.10;;
66143;SDS011;52947;50.842;6.084;2023-08-06T08:43:32;9.50;;;2.50;;
66143;SDS011;52947;50.842;6.084;2023-08-06T08:46:02;4.10;;;2.53;;
66143;SDS011;52947;50.842;6.084;2023-08-06T08:48:33;2.75;;;2.13;;
66143;SDS011;52947;50.842;6.084;2023-08-06T08:51:00;4.07;;;2.13;;
66143;SDS011;52947;50.842;6.084;2023-08-06T08:53:30;5.82;;;2.65;;
66143;SDS011;52947;50.842;6.084;2023-08-06T08:55:59;7.53;;;2.50;;
66143;SDS011;52947;50.842;6.084;2023-08-06T08:58:27;2.03;;;1.83;;
66143;SDS011;52947;50.842;6.084;2023-08-06T09:00:56;5.45;;;1.90;;
66143;SDS011;52947;50.842;6.084;2023-08-06T09:05:54;4.35;;;1.90;;
66143;SDS011;52947;50.842;6.084;2023-08-06T09:08:24;4.32;;;1.85;;
66143;SDS011;52947;50.842;6.084;2023-08-06T09:10:58;4.88;;;2.17;;
66143;SDS011;52947;50.842;6.084;2023-08-06T09:13:26;5.85;;;2.20;;
66143;SDS011;52947;50.842;6.084;2023-08-06T09:15:54;4.85;;;2.20;;
66143;SDS011;52947;50.842;6.084;2023-08-06T09:18:27;5.22;;;2.15;;
66143;SDS011;52947;50.842;6.084;2023-08-06T09:20:56;3.65;;;2.25;;
66143;SDS011;52947;50.842;6.084;2023-08-06T09:23:27;5.07;;;2.42;;
66143;SDS011;52947;50.842;6.084;2023-08-06T09:25:57;6.13;;;2.53;;
66143;SDS011;52947;50.842;6.084;2023-08-06T09:28:25;7.25;;;2.33;;
66143;SDS011;52947;50.842;6.084;2023-08-06T09:33:33;5.55;;;2.35;;
66143;SDS011;52947;50.842;6.084;2023-08-06T09:36:07;6.78;;;1.75;;
66143;SDS011;52947;50.842;6.084;2023-08-06T09:38:39;3.33;;;1.80;;
66143;SDS011;52947;50.842;6.084;2023-08-06T09:41:08;4.75;;;1.60;;
66143;SDS011;52947;50.842;6.084;2023-08-06T09:43:39;4.33;;;1.70;;
66143;SDS011;52947;50.842;6.084;2023-08-06T09:46:11;5.63;;;1.98;;
66143;SDS011;52947;50.842;6.084;2023-08-06T09:48:45;9.45;;;1.70;;
66143;SDS011;52947;50.842;6.084;2023-08-06T09:51:14;2.30;;;1.38;;
66143;SDS011;52947;50.842;6.084;2023-08-06T09:53:42;3.07;;;1.20;;
66143;SDS011;52947;50.842;6.084;2023-08-06T09:56:11;7.57;;;1.90;;
66143;SDS011;52947;50.842;6.084;2023-08-06T09:58:41;7.57;;;1.73;;
66143;SDS011;52947;50.842;6.084;2023-08-06T10:01:09;4.47;;;1.70;;
66143;SDS011;52947;50.842;6.084;2023-08-06T10:03:39;2.22;;;1.33;;
66143;SDS011;52947;50.842;6.084;2023-08-06T10:06:09;4.30;;;1.60;;
66143;SDS011;52947;50.842;6.084;2023-08-06T10:08:38;4.80;;;1.40;;
66143;SDS011;52947;50.842;6.084;2023-08-06T10:11:08;4.20;;;1.60;;
66143;SDS011;52947;50.842;6.084;2023-08-06T10:13:36;5.10;;;1.83;;
66143;SDS011;52947;50.842;6.084;2023-08-06T10:16:06;7.25;;;1.67;;
66143;SDS011;52947;50.842;6.084;2023-08-06T10:18:35;8.15;;;2.28;;
66143;SDS011;52947;50.842;6.084;2023-08-06T10:21:08;8.68;;;2.10;;
66143;SDS011;52947;50.842;6.084;2023-08-06T10:23:36;6.78;;;1.85;;
66143;SDS011;52947;50.842;6.084;2023-08-06T10:26:07;6.05;;;1.80;;
66143;SDS011;52947;50.842;6.084;2023-08-06T10:28:36;7.28;;;1.92;;
66143;SDS011;52947;50.842;6.084;2023-08-06T10:33:42;6.13;;;1.70;;
66143;SDS011;52947;50.842;6.084;2023-08-06T10:36:13;4.82;;;2.03;;
66143;SDS011;52947;50.842;6.084;2023-08-06T10:38:45;6.13;;;2.15;;
66143;SDS011;52947;50.842;6.084;2023-08-06T10:41:22;4.68;;;1.83;;
66143;SDS011;52947;50.842;6.084;2023-08-06T10:43:51;6.25;;;2.03;;
66143;SDS011;52947;50.842;6.084;2023-08-06T10:46:23;6.50;;;2.13;;
66143;SDS011;52947;50.842;6.084;2023-08-06T10:48:54;5.38;;;1.63;;
66143;SDS011;52947;50.842;6.084;2023-08-06T10:51:23;6.35;;;1.42;;
66143;SDS011;52947;50.842;6.084;2023-08-06T10:56:19;4.40;;;1.63;;
66143;SDS011;52947;50.842;6.084;2023-08-06T10:58:50;4.50;;;1.50;;
66143;SDS011;52947;50.842;6.084;2023-08-06T11:01:19;5.22;;;1.40;;
66143;SDS011;52947;50.842;6.084;2023-08-06T11:06:17;3.67;;;1.17;;
66143;SDS011;52947;50.842;6.084;2023-08-06T11:08:51;4.63;;;1.50;;
66143;SDS011;52947;50.842;6.084;2023-08-06T11:11:20;5.07;;;1.60;;
66143;SDS011;52947;50.842;6.084;2023-08-06T11:13:50;6.53;;;1.70;;
66143;SDS011;52947;50.842;6.084;2023-08-06T11:16:19;4.13;;;1.45;;
66143;SDS011;52947;50.842;6.084;2023-08-06T11:18:51;7.97;;;1.77;;
66143;SDS011;52947;50.842;6.084;2023-08-06T11:21:20;3.65;;;1.30;;
66143;SDS011;52947;50.842;6.084;2023-08-06T11:23:50;4.18;;;1.48;;
66143;SDS011;52947;50.842;6.084;2023-08-06T11:26:18;2.70;;;1.20;;
66143;SDS011;52947;50.842;6.084;2023-08-06T11:28:47;3.10;;;1.20;;
66143;SDS011;52947;50.842;6.084;2023-08-06T11:31:18;1.88;;;1.00;;
66143;SDS011;52947;50.842;6.084;2023-08-06T11:33:47;3.95;;;1.25;;
66143;SDS011;52947;50.842;6.084;2023-08-06T11:36:15;4.55;;;1.45;;
66143;SDS011;52947;50.842;6.084;2023-08-06T11:38:43;7.33;;;1.70;;
66143;SDS011;52947;50.842;6.084;2023-08-06T11:41:13;2.63;;;1.58;;
66143;SDS011;52947;50.842;6.084;2023-08-06T11:43:41;4.85;;;1.17;;
66143;SDS011;52947;50.842;6.084;2023-08-06T11:46:13;2.97;;;1.05;;
66143;SDS011;52947;50.842;6.084;2023-08-06T11:48:50;3.30;;;1.20;;
66143;SDS011;52947;50.842;6.084;2023-08-06T11:51:22;3.30;;;1.38;;
66143;SDS011;52947;50.842;6.084;2023-08-06T11:53:50;2.45;;;1.10;;
66143;SDS011;52947;50.842;6.084;2023-08-06T11:56:20;6.47;;;1.20;;
66143;SDS011;52947;50.842;6.084;2023-08-06T12:01:16;2.47;;;0.98;;
66143;SDS011;52947;50.842;6.084;2023-08-06T12:03:44;1.38;;;0.85;;
66143;SDS011;52947;50.842;6.084;2023-08-06T12:06:11;1.73;;;0.80;;
66143;SDS011;52947;50.842;6.084;2023-08-06T12:08:39;3.20;;;1.00;;
66143;SDS011;52947;50.842;6.084;2023-08-06T12:11:08;1.45;;;0.75;;
66143;SDS011;52947;50.842;6.084;2023-08-06T12:13:38;2.03;;;1.00;;
66143;SDS011;52947;50.842;6.084;2023-08-06T12:18:33;3.03;;;1.10;;
66143;SDS011;52947;50.842;6.084;2023-08-06T12:21:01;5.00;;;1.30;;
66143;SDS011;52947;50.842;6.084;2023-08-06T12:23:29;3.28;;;1.00;;
66143;SDS011;52947;50.842;6.084;2023-08-06T12:25:59;2.53;;;1.20;;
66143;SDS011;52947;50.842;6.084;2023-08-06T12:28:27;3.83;;;1.42;;
66143;SDS011;52947;50.842;6.084;2023-08-06T12:30:56;6.22;;;1.58;;
66143;SDS011;52947;50.842;6.084;2023-08-06T12:33:24;5.30;;;1.70;;
66143;SDS011;52947;50.842;6.084;2023-08-06T12:35:52;4.47;;;1.58;;
66143;SDS011;52947;50.842;6.084;2023-08-06T12:38:21;8.48;;;1.90;;
66143;SDS011;52947;50.842;6.084;2023-08-06T12:40:49;4.82;;;1.40;;
66143;SDS011;52947;50.842;6.084;2023-08-06T12:43:17;3.03;;;1.20;;
66143;SDS011;52947;50.842;6.084;2023-08-06T12:45:45;3.83;;;1.30;;
66143;SDS011;52947;50.842;6.084;2023-08-06T12:48:16;4.80;;;2.03;;
66143;SDS011;52947;50.842;6.084;2023-08-06T12:50:45;5.47;;;1.65;;
66143;SDS011;52947;50.842;6.084;2023-08-06T12:53:13;3.53;;;1.27;;
66143;SDS011;52947;50.842;6.084;2023-08-06T12:55:41;4.88;;;1.40;;
66143;SDS011;52947;50.842;6.084;2023-08-06T12:58:09;9.57;;;1.50;;
66143;SDS011;52947;50.842;6.084;2023-08-06T13:00:37;7.38;;;1.50;;
66143;SDS011;52947;50.842;6.084;2023-08-06T13:03:05;10.35;;;1.55;;
66143;SDS011;52947;50.842;6.084;2023-08-06T13:05:34;5.53;;;1.45;;
66143;SDS011;52947;50.842;6.084;2023-08-06T13:08:03;5.00;;;1.48;;
66143;SDS011;52947;50.842;6.084;2023-08-06T13:10:31;2.90;;;1.40;;
66143;SDS011;52947;50.842;6.084;2023-08-06T13:12:59;4.43;;;1.80;;
66143;SDS011;52947;50.842;6.084;2023-08-06T13:15:27;4.88;;;1.02;;
66143;SDS011;52947;50.842;6.084;2023-08-06T13:17:55;7.85;;;1.30;;
66143;SDS011;52947;50.842;6.084;2023-08-06T13:20:23;3.25;;;0.98;;
66143;SDS011;52947;50.842;6.084;2023-08-06T13:22:52;4.53;;;1.50;;
66143;SDS011;52947;50.842;6.084;2023-08-06T13:25:22;6.00;;;1.30;;
66143;SDS011;52947;50.842;6.084;2023-08-06T13:27:50;4.75;;;1.50;;
66143;SDS011;52947;50.842;6.084;2023-08-06T13:30:18;2.53;;;0.98;;
66143;SDS011;52947;50.842;6.084;2023-08-06T13:32:46;3.08;;;1.13;;
66143;SDS011;52947;50.842;6.084;2023-08-06T13:35:14;1.67;;;1.10;;
66143;SDS011;52947;50.842;6.084;2023-08-06T13:37:42;3.50;;;1.15;;
66143;SDS011;52947;50.842;6.084;2023-08-06T13:40:11;2.13;;;1.08;;
66143;SDS011;52947;50.842;6.084;2023-08-06T13:42:39;1.23;;;0.88;;
66143;SDS011;52947;50.842;6.084;2023-08-06T13:45:07;1.95;;;0.88;;
66143;SDS011;52947;50.842;6.084;2023-08-06T13:47:35;0.70;;;0.70;;
66143;SDS011;52947;50.842;6.084;2023-08-06T13:50:04;2.50;;;1.00;;
66143;SDS011;52947;50.842;6.084;2023-08-06T13:52:32;1.65;;;0.88;;
66143;SDS011;52947;50.842;6.084;2023-08-06T13:55:01;1.95;;;1.00;;
66143;SDS011;52947;50.842;6.084;2023-08-06T13:57:31;3.63;;;0.95;;
66143;SDS011;52947;50.842;6.084;2023-08-06T13:59:59;2.13;;;1.02;;
66143;SDS011;52947;50.842;6.084;2023-08-06T14:02:37;3.72;;;1.08;;
66143;SDS011;52947;50.842;6.084;2023-08-06T14:05:06;3.05;;;1.15;;
66143;SDS011;52947;50.842;6.084;2023-08-06T14:07:34;1.30;;;0.90;;
66143;SDS011;52947;50.842;6.084;2023-08-06T14:10:02;3.13;;;1.23;;
66143;SDS011;52947;50.842;6.084;2023-08-06T14:12:32;5.95;;;1.25;;
66143;SDS011;52947;50.842;6.084;2023-08-06T14:15:00;2.22;;;1.00;;
66143;SDS011;52947;50.842;6.084;2023-08-06T14:19:57;1.90;;;1.08;;
66143;SDS011;52947;50.842;6.084;2023-08-06T14:22:26;1.98;;;1.05;;
66143;SDS011;52947;50.842;6.084;2023-08-06T14:24:57;1.77;;;0.95;;
66143;SDS011;52947;50.842;6.084;2023-08-06T14:27:25;3.90;;;1.35;;
66143;SDS011;52947;50.842;6.084;2023-08-06T14:29:54;1.33;;;0.90;;
66143;SDS011;52947;50.842;6.084;2023-08-06T14:34:50;3.42;;;1.20;;
66143;SDS011;52947;50.842;6.084;2023-08-06T14:37:18;2.33;;;1.05;;
66143;SDS011;52947;50.842;6.084;2023-08-06T14:39:46;3.38;;;0.90;;
66143;SDS011;52947;50.842;6.084;2023-08-06T14:42:14;1.58;;;1.13;;
66143;SDS011;52947;50.842;6.084;2023-08-06T14:44:42;3.30;;;1.17;;
66143;SDS011;52947;50.842;6.084;2023-08-06T14:47:11;2.75;;;0.88;;
66143;SDS011;52947;50.842;6.084;2023-08-06T14:49:39;3.20;;;1.27;;
66143;SDS011;52947;50.842;6.084;2023-08-06T14:52:07;4.72;;;1.17;;
66143;SDS011;52947;50.842;6.084;2023-08-06T14:54:35;1.17;;;0.90;;
66143;SDS011;52947;50.842;6.084;2023-08-06T14:57:03;2.90;;;1.13;;
66143;SDS011;52947;50.842;6.084;2023-08-06T14:59:31;3.70;;;1.20;;
66143;SDS011;52947;50.842;6.084;2023-08-06T15:01:59;3.10;;;1.08;;
66143;SDS011;52947;50.842;6.084;2023-08-06T15:04:28;4.05;;;1.30;;
66143;SDS011;52947;50.842;6.084;2023-08-06T15:06:56;2.05;;;1.00;;
66143;SDS011;52947;50.842;6.084;2023-08-06T15:09:24;4.90;;;1.17;;
66143;SDS011;52947;50.842;6.084;2023-08-06T15:11:52;3.08;;;1.00;;
66143;SDS011;52947;50.842;6.084;2023-08-06T15:14:20;3.80;;;1.10;;
66143;SDS011;52947;50.842;6.084;2023-08-06T15:16:48;2.58;;;1.00;;
66143;SDS011;52947;50.842;6.084;2023-08-06T15:19:18;2.80;;;1.23;;
66143;SDS011;52947;50.842;6.084;2023-08-06T15:21:48;2.20;;;1.02;;
66143;SDS011;52947;50.842;6.084;2023-08-06T15:26:43;4.65;;;1.55;;
66143;SDS011;52947;50.842;6.084;2023-08-06T15:29:11;3.80;;;1.27;;
66143;SDS011;52947;50.842;6.084;2023-08-06T15:31:39;3.28;;;1.48;;
66143;SDS011;52947;50.842;6.084;2023-08-06T15:34:07;4.97;;;1.20;;
66143;SDS011;52947;50.842;6.084;2023-08-06T15:36:35;3.03;;;1.20;;
66143;SDS011;52947;50.842;6.084;2023-08-06T15:39:05;3.13;;;1.30;;
66143;SDS011;52947;50.842;6.084;2023-08-06T15:44:01;3.10;;;1.00;;
66143;SDS011;52947;50.842;6.084;2023-08-06T15:46:29;1.33;;;0.80;;
66143;SDS011;52947;50.842;6.084;2023-08-06T15:48:57;2.17;;;0.90;;
66143;SDS011;52947;50.842;6.084;2023-08-06T15:51:25;2.83;;;0.88;;
66143;SDS011;52947;50.842;6.084;2023-08-06T15:53:53;4.22;;;1.00;;
66143;SDS011;52947;50.842;6.084;2023-08-06T15:56:22;3.20;;;1.05;;
66143;SDS011;52947;50.842;6.084;2023-08-06T15:58:50;4.78;;;1.00;;
66143;SDS011;52947;50.842;6.084;2023-08-06T16:01:18;3.22;;;1.00;;
66143;SDS011;52947;50.842;6.084;2023-08-06T16:03:46;5.82;;;1.20;;
66143;SDS011;52947;50.842;6.084;2023-08-06T16:06:14;4.35;;;1.02;;